Time;durP1;ratioP1;P1;durP2;ratioP2;P2;SDS_P1;SDS_P2;PMS_P1;PMS_P2;Temp;Humidity;BMP_temperature;BMP_pressure;BME280_temperature;BME280_humidity;BME280_pressure;Samples;Min_cycle;Max_cycle;Signal;HPM_P1;HPM_P2
2022/10/02 00:02:16;;;;;;;6.72;2.97;;;;;;;16.17;75.52;99514.72;5094715;28;20111;-47
2022/10/02 00:05:23;;;;;;;3.92;3.13;;;;;;;16.40;74.42;99512.50;5094647;28;20117;-47
2022/10/02 00:08:01;;;;;;;5.50;3.13;;;;;;;16.32;73.66;99510.97;5077209;28;20521;-48
2022/10/02 00:10:35;;;;;;;6.82;3.03;;;;;;;16.32;73.87;99517.06;5094513;28;20024;-47
2022/10/02 00:13:07;;;;;;;8.97;3.83;;;;;;;16.49;74.31;99519.16;5093559;28;20032;-47
2022/10/02 00:15:36;;;;;;;12.70;4.57;;;;;;;17.07;74.12;99524.09;5092887;28;20644;-48
2022/10/02 00:18:29;;;;;;;11.25;3.85;;;;;;;17.38;71.92;99522.28;5094377;28;20032;-48
2022/10/02 00:21:23;;;;;;;6.00;2.60;;;;;;;17.37;70.83;99524.13;5094359;28;20024;-47
2022/10/02 00:23:59;;;;;;;8.20;3.00;;;;;;;17.27;70.70;99523.84;5093199;28;20085;-47
2022/10/02 00:26:32;;;;;;;5.72;2.90;;;;;;;17.22;71.13;99517.59;5094207;28;20059;-47
2022/10/02 00:29:13;;;;;;;6.18;2.75;;;;;;;17.06;70.93;99517.16;5093123;28;20036;-48
2022/10/02 00:31:56;;;;;;;4.70;3.35;;;;;;;16.76;71.65;99520.53;5094131;28;20031;-47
2022/10/02 00:34:57;;;;;;;7.65;3.30;;;;;;;16.46;71.99;99528.38;5094133;28;20025;-47
2022/10/02 00:37:55;;;;;;;5.45;3.47;;;;;;;16.25;72.58;99520.81;5092575;28;20036;-47
2022/10/02 00:40:55;;;;;;;3.90;2.60;;;;;;;16.18;73.43;99518.22;5059598;28;20060;-48
2022/10/02 00:43:44;;;;;;;6.05;2.35;;;;;;;16.10;73.38;99508.69;5093977;28;20050;-47
2022/10/02 00:46:23;;;;;;;6.93;2.95;;;;;;;16.00;73.74;99510.19;5093410;28;20367;-47
2022/10/02 00:49:06;;;;;;;6.68;2.47;;;;;;;15.96;74.72;99507.19;5093890;28;20035;-47
2022/10/02 00:51:50;;;;;;;5.60;3.40;;;;;;;16.01;74.73;99509.16;5093790;28;20084;-47
2022/10/02 00:54:25;;;;;;;8.43;3.25;;;;;;;15.91;75.18;99501.72;5092624;28;20054;-47
2022/10/02 00:57:29;;;;;;;8.43;4.20;;;;;;;15.76;75.46;99505.47;5093534;28;20035;-47
2022/10/02 01:00:08;;;;;;;7.65;3.40;;;;;;;15.58;76.43;99532.63;5092302;28;20028;-47
2022/10/02 01:02:50;;;;;;;7.40;3.53;;;;;;;15.54;77.09;99523.47;5093530;28;20051;-47
2022/10/02 01:05:16;;;;;;;7.75;3.28;;;;;;;15.65;77.25;99516.69;5093448;28;20055;-47
2022/10/02 01:07:45;;;;;;;4.10;2.88;;;;;;;15.71;76.76;99512.41;5093335;28;20063;-47
2022/10/02 01:10:13;;;;;;;7.22;3.30;;;;;;;15.71;77.00;99515.84;5091992;28;20482;-47
2022/10/02 01:12:39;;;;;;;13.90;7.40;;;;;;;16.07;78.22;99516.25;5093315;28;20028;-47
2022/10/02 01:15:17;;;;;;;6.75;2.88;;;;;;;16.57;76.73;99513.56;5092994;28;20506;-48
2022/10/02 01:17:45;;;;;;;11.25;2.85;;;;;;;16.89;76.04;99516.13;5091886;28;20086;-47
2022/10/02 01:20:20;;;;;;;14.80;3.70;;;;;;;16.99;73.48;99513.78;5093141;28;20102;-47
2022/10/02 01:23:20;;;;;;;8.80;3.47;;;;;;;16.82;73.11;99508.28;5093150;28;20051;-47
2022/10/02 01:25:46;;;;;;;10.52;3.72;;;;;;;16.79;74.18;99513.97;5030588;28;20065;-47
2022/10/02 01:28:11;;;;;;;8.23;3.28;;;;;;;17.05;73.77;99501.47;5014030;28;20611;-47
2022/10/02 01:30:42;;;;;;;6.45;3.60;;;;;;;16.97;72.73;99494.63;5014054;28;20038;-47
2022/10/02 01:33:09;;;;;;;9.52;2.97;;;;;;;16.84;73.04;99503.56;5030699;28;20081;-47
2022/10/02 01:35:38;;;;;;;6.88;3.42;;;;;;;17.06;73.23;99501.22;5013920;28;20030;-47
2022/10/02 01:38:08;;;;;;;7.63;3.10;;;;;;;17.05;73.10;99501.47;5013816;28;20032;-47
2022/10/02 01:40:38;;;;;;;9.30;3.70;;;;;;;17.16;72.95;99496.25;5030540;28;20037;-47
2022/10/02 01:43:10;;;;;;;93.65;85.13;;;;;;;17.23;72.55;99487.38;5030367;28;20041;-47
2022/10/02 01:45:55;;;;;;;16.52;14.77;;;;;;;17.33;72.24;99491.13;5013815;28;20041;-47
2022/10/02 01:48:45;;;;;;;8.13;4.65;;;;;;;17.23;70.88;99490.03;5030376;28;20136;-47
2022/10/02 01:51:31;;;;;;;12.35;6.22;;;;;;;17.05;71.94;99488.22;5030224;28;20041;-47
2022/10/02 01:54:40;;;;;;;15.65;14.25;;;;;;;17.00;71.94;99485.41;5030292;28;20032;-47
2022/10/02 01:57:35;;;;;;;50.10;45.83;;;;;;;17.16;73.06;99474.19;4990589;28;20030;-47
2022/10/02 02:00:08;;;;;;;67.40;59.95;;;;;;;17.33;72.43;99475.19;4990729;28;20065;-47
2022/10/02 02:02:52;;;;;;;27.05;21.70;;;;;;;17.49;72.24;99472.94;5006348;28;20079;-47
2022/10/02 02:05:55;;;;;;;6.05;5.40;;;;;;;17.42;70.31;99480.19;5053163;28;20111;-47
2022/10/02 02:08:30;;;;;;;15.40;8.10;;;;;;;16.99;71.02;99481.97;5029217;28;20167;-47
2022/10/02 02:11:07;;;;;;;;;;;;;;;16.80;72.12;99483.75;5070216;28;20021;-47
2022/10/02 02:13:50;;;;;;;7.07;3.40;;;;;;;16.91;71.84;99488.38;5069858;28;20007;-47
2022/10/02 02:16:25;;;;;;;8.68;3.42;;;;;;;17.15;72.43;99483.19;5052890;28;20155;-47
2022/10/02 02:18:56;;;;;;;4.10;2.75;;;;;;;17.33;71.58;99487.66;5052907;28;20028;-47
2022/10/02 02:21:32;;;;;;;7.10;3.60;;;;;;;17.24;71.26;99478.38;5069691;28;20042;-47
2022/10/02 02:24:03;;;;;;;9.18;4.72;;;;;;;17.13;71.91;99475.44;5069790;28;20118;-47
2022/10/02 02:26:30;;;;;;;7.75;3.25;;;;;;;17.11;71.95;99474.88;5069599;28;20418;-47
2022/10/02 02:29:01;;;;;;;14.70;7.05;;;;;;;17.01;71.12;99465.84;5091150;28;20074;-47
2022/10/02 02:31:34;;;;;;;14.95;6.35;;;;;;;16.63;71.10;99480.09;5092312;28;20453;-47
2022/10/02 02:34:06;;;;;;;7.05;4.60;;;;;;;16.58;72.35;99476.25;5090929;28;20084;-47
2022/10/02 02:36:37;;;;;;;3.92;2.70;;;;;;;16.57;71.67;99482.59;5092000;28;20119;-47
2022/10/02 02:39:14;;;;;;;8.73;4.47;;;;;;;16.47;72.57;99479.63;5090606;28;20554;-47
2022/10/02 02:41:48;;;;;;;8.55;3.70;;;;;;;16.68;72.43;99488.19;5090698;28;20093;-47
2022/10/02 02:44:14;;;;;;;12.52;5.50;;;;;;;16.82;71.84;99480.94;5091929;28;20055;-47
2022/10/02 02:47:03;;;;;;;9.40;3.70;;;;;;;16.78;71.45;99481.34;5090554;28;20081;-47
2022/10/02 02:49:49;;;;;;;9.65;3.40;;;;;;;16.83;71.93;99471.97;5090591;28;20123;-47
2022/10/02 02:52:30;;;;;;;6.68;3.38;;;;;;;16.94;71.27;99479.97;5091862;28;20397;-48
2022/10/02 02:55:06;;;;;;;5.97;2.90;;;;;;;16.93;70.66;99480.19;5091876;28;20036;-48
2022/10/02 02:57:51;;;;;;;7.88;2.95;;;;;;;16.91;70.82;99493.66;5091793;28;20020;-47
2022/10/02 03:00:18;;;;;;;7.47;2.93;;;;;;;16.86;70.97;99487.41;5091802;28;20536;-48
2022/10/02 03:02:44;;;;;;;4.93;2.30;;;;;;;16.81;70.77;99477.47;5091629;28;20056;-47
2022/10/02 03:05:17;;;;;;;6.82;2.42;;;;;;;16.76;71.06;99483.41;5090405;28;20019;-47
2022/10/02 03:07:54;;;;;;;10.00;2.00;;;;;;;17.01;70.74;99469.28;5091627;28;20114;-47
2022/10/02 03:10:28;;;;;;;6.70;3.30;;;;;;;17.09;69.32;99473.47;5095946;28;20043;-47
2022/10/02 03:13:11;;;;;;;4.60;1.70;;;;;;;16.99;68.89;99462.59;5095711;28;20032;-48
2022/10/02 03:15:55;;;;;;;4.93;1.48;;;;;;;16.78;69.02;99472.56;5094150;28;20046;-47
2022/10/02 03:18:39;;;;;;;9.05;3.42;;;;;;;16.66;69.90;99463.75;5095808;28;20467;-48
2022/10/02 03:21:45;;;;;;;6.63;2.65;;;;;;;17.01;69.72;99458.69;5095524;28;20078;-48
2022/10/02 03:24:28;;;;;;;5.07;2.22;;;;;;;17.08;69.13;99464.72;5087025;28;20032;-47
2022/10/02 03:27:07;;;;;;;10.65;4.65;;;;;;;17.25;69.43;99470.19;5095419;28;20050;-47
2022/10/02 03:29:39;;;;;;;7.82;2.60;;;;;;;17.49;68.96;99465.00;5094101;28;20413;-47
2022/10/02 03:32:08;;;;;;;6.38;2.30;;;;;;;17.63;68.50;99465.59;5095240;28;20027;-47
2022/10/02 03:34:36;;;;;;;3.70;2.00;;;;;;;17.60;67.90;99463.41;5095276;28;20024;-47
2022/10/02 03:37:02;;;;;;;6.80;2.60;;;;;;;17.55;67.94;99474.69;5093843;28;20028;-47
2022/10/02 03:39:27;;;;;;;6.15;2.60;;;;;;;17.43;68.29;99481.81;5095054;28;20023;-48
2022/10/02 03:41:53;;;;;;;5.82;2.20;;;;;;;17.16;68.25;99469.72;5095095;28;20027;-48
2022/10/02 03:44:21;;;;;;;8.02;2.78;;;;;;;17.01;69.27;99463.19;5077174;28;20017;-47
2022/10/02 03:46:46;;;;;;;2.72;1.95;;;;;;;17.06;68.90;99458.00;5093714;28;20666;-48
2022/10/02 03:49:12;;;;;;;6.88;3.10;;;;;;;16.95;68.54;99473.63;5093627;28;20036;-47
2022/10/02 03:51:38;;;;;;;4.68;2.90;;;;;;;16.84;69.13;99470.91;5094948;28;20108;-47
2022/10/02 03:54:15;;;;;;;6.70;2.75;;;;;;;16.86;69.81;99463.53;5094870;28;20020;-47
2022/10/02 03:56:57;;;;;;;6.57;2.20;;;;;;;17.00;69.83;99470.31;5094804;28;20111;-47
2022/10/02 03:59:31;;;;;;;5.00;2.30;;;;;;;17.10;69.74;99465.31;5093460;28;20035;-48
2022/10/02 04:02:02;;;;;;;7.67;2.50;;;;;;;17.13;69.49;99472.00;5093437;28;20031;-47
2022/10/02 04:04:39;;;;;;;8.65;2.05;;;;;;;17.05;69.38;99465.16;5094761;28;20059;-47
2022/10/02 04:07:11;;;;;;;7.93;2.63;;;;;;;16.96;69.62;99463.81;5093354;28;20038;-47
2022/10/02 04:09:45;;;;;;;11.57;6.05;;;;;;;17.00;70.09;99469.50;5094656;28;20031;-47
2022/10/02 04:12:25;;;;;;;9.30;3.05;;;;;;;17.21;70.14;99469.03;5093286;28;20025;-47
2022/10/02 04:15:07;;;;;;;5.13;2.05;;;;;;;17.29;69.40;99466.06;5093067;28;20123;-47
2022/10/02 04:17:47;;;;;;;6.00;3.00;;;;;;;17.29;69.10;99458.09;5093129;28;20108;-47
2022/10/02 04:20:20;;;;;;;6.85;3.25;;;;;;;17.23;69.11;99456.34;5093215;28;20035;-47
2022/10/02 04:22:54;;;;;;;5.78;2.50;;;;;;;17.15;69.17;99456.66;5093062;28;20051;-48
2022/10/02 04:25:36;;;;;;;4.85;2.00;;;;;;;17.02;69.01;99454.97;5094581;28;20111;-47
2022/10/02 04:28:06;;;;;;;6.03;2.45;;;;;;;16.99;69.71;99454.63;5092983;28;20040;-47
2022/10/02 04:30:32;;;;;;;5.82;2.72;;;;;;;17.23;70.04;99451.06;5094226;28;20036;-47
2022/10/02 04:33:09;;;;;;;6.82;2.28;;;;;;;17.38;69.28;99453.28;5092869;28;20370;-48
2022/10/02 04:35:53;;;;;;;5.63;2.13;;;;;;;17.46;69.42;99457.47;5094117;28;20027;-47
2022/10/02 04:38:36;;;;;;;9.13;2.25;;;;;;;17.67;69.03;99462.25;5092951;28;20024;-48
2022/10/02 04:41:11;;;;;;;14.45;2.85;;;;;;;17.87;68.80;99454.03;5093982;28;20032;-47
2022/10/02 04:44:15;;;;;;;5.63;1.88;;;;;;;18.17;67.90;99451.28;5093987;28;20402;-47
2022/10/02 04:46:58;;;;;;;6.93;2.38;;;;;;;18.16;67.09;99456.81;5092628;28;20028;-47
2022/10/02 04:49:51;;;;;;;5.18;2.75;;;;;;;17.98;66.82;99449.75;5093850;28;20028;-47
2022/10/02 04:52:32;;;;;;;6.18;2.13;;;;;;;17.74;67.19;99447.03;5092455;28;20028;-48
2022/10/02 04:55:16;;;;;;;10.80;2.83;;;;;;;17.47;67.72;99440.53;5092426;28;20036;-47
2022/10/02 04:57:42;;;;;;;6.70;1.92;;;;;;;17.25;68.24;99438.38;5092193;28;20516;-47
2022/10/02 05:00:35;;;;;;;4.25;2.00;;;;;;;16.97;69.21;99436.28;5092597;28;20028;-47
2022/10/02 05:03:26;;;;;;;6.60;2.08;;;;;;;16.97;70.59;99452.19;5092238;28;20142;-47
2022/10/02 05:06:37;;;;;;;9.77;2.10;;;;;;;17.26;70.28;99444.47;5093537;28;20210;-47
2022/10/02 05:09:19;;;;;;;7.07;1.80;;;;;;;17.77;69.63;99443.13;5083402;28;20051;-47
2022/10/02 05:11:51;;;;;;;5.43;2.13;;;;;;;18.27;69.01;99439.25;5093453;28;20024;-47
2022/10/02 05:14:33;;;;;;;9.85;2.33;;;;;;;18.81;67.07;99429.22;5091741;28;20028;-48
2022/10/02 05:17:14;;;;;;;10.88;2.88;;;;;;;19.09;65.34;99432.97;5093298;28;20537;-48
2022/10/02 05:19:49;;;;;;;9.18;3.15;;;;;;;19.02;65.24;99435.78;5093171;28;20024;-47
2022/10/02 05:22:47;;;;;;;14.55;3.28;;;;;;;19.05;65.30;99440.59;5093195;28;20028;-48
2022/10/02 05:25:34;;;;;;;6.50;3.03;;;;;;;19.09;64.71;99446.28;5091780;28;20126;-46
2022/10/02 05:28:21;;;;;;;3.72;2.40;;;;;;;18.72;64.85;99454.56;5091796;28;20054;-46
2022/10/02 05:31:19;;;;;;;14.52;3.05;;;;;;;18.38;66.79;99448.25;5093027;28;20447;-46
2022/10/02 05:33:55;;;;;;;11.32;2.80;;;;;;;18.45;66.82;99457.72;5088292;28;20036;-46
2022/10/02 05:36:36;;;;;;;;;;;;;;;18.43;66.71;99461.66;5092031;28;20122;-46
2022/10/02 05:39:07;;;;;;;4.57;2.55;;;;;;;18.25;66.98;99466.06;5092777;28;19916;-46
2022/10/02 05:41:57;;;;;;;14.98;2.90;;;;;;;18.28;67.54;99462.94;5092857;28;20111;-46
2022/10/02 05:44:50;;;;;;;4.18;2.30;;;;;;;18.45;66.85;99457.72;5092831;28;20024;-46
2022/10/02 05:47:38;;;;;;;13.70;2.88;;;;;;;18.44;66.78;99461.41;5092760;28;20498;-46
2022/10/02 05:50:29;;;;;;;8.75;2.22;;;;;;;18.67;66.69;99457.94;5092672;28;20027;-46
2022/10/02 05:53:20;;;;;;;7.28;3.15;;;;;;;18.83;65.63;99458.25;5091289;28;20123;-46
2022/10/02 05:55:55;;;;;;;4.88;2.10;;;;;;;18.59;65.15;99452.94;5092068;28;20040;-46
2022/10/02 05:58:26;;;;;;;7.30;2.22;;;;;;;18.36;65.41;99467.09;5092625;28;20028;-46
2022/10/02 06:01:09;;;;;;;5.05;2.50;;;;;;;18.11;66.00;99465.47;5092637;28;20032;-46
2022/10/02 06:03:48;;;;;;;8.35;3.40;;;;;;;17.88;66.63;99462.78;5092426;28;20085;-46
2022/10/02 06:06:40;;;;;;;10.05;3.22;;;;;;;17.66;68.09;99455.31;5091125;28;20085;-46
2022/10/02 06:09:17;;;;;;;6.47;2.80;;;;;;;17.80;68.41;99463.09;5081489;28;20043;-46
2022/10/02 06:11:58;;;;;;;7.82;3.28;;;;;;;18.00;68.07;99473.44;5091036;28;20032;-46
2022/10/02 06:14:38;;;;;;;6.60;3.22;;;;;;;18.07;67.84;99469.63;5090728;28;20028;-46
2022/10/02 06:17:12;;;;;;;7.03;3.05;;;;;;;18.09;67.86;99469.38;5092186;28;20459;-46
2022/10/02 06:19:44;;;;;;;6.53;2.78;;;;;;;18.14;67.42;99465.00;5090911;28;20393;-46
2022/10/02 06:22:18;;;;;;;9.27;2.38;;;;;;;18.17;67.53;99467.22;5092185;28;20414;-46
2022/10/02 06:25:00;;;;;;;5.15;2.45;;;;;;;18.20;66.95;99459.81;5092257;28;20114;-46
2022/10/02 06:27:37;;;;;;;10.07;3.10;;;;;;;17.88;67.06;99460.13;5092159;28;20020;-46
2022/10/02 06:30:07;;;;;;;4.57;2.42;;;;;;;17.74;68.07;99460.31;5090708;28;20032;-46
2022/10/02 06:32:48;;;;;;;5.25;2.60;;;;;;;17.73;68.04;99450.72;5092338;28;20020;-46
2022/10/02 06:35:17;;;;;;;3.85;2.47;;;;;;;17.73;68.41;99458.69;5091969;28;20108;-46
2022/10/02 06:38:01;;;;;;;6.68;2.78;;;;;;;17.82;68.66;99456.50;5091856;28;20378;-46
2022/10/02 06:40:36;;;;;;;5.13;2.70;;;;;;;17.94;68.48;99457.38;5091913;28;20551;-46
2022/10/02 06:43:20;;;;;;;3.72;2.97;;;;;;;18.08;68.27;99457.97;5089912;28;20513;-46
2022/10/02 06:46:12;;;;;;;3.83;2.38;;;;;;;18.11;67.98;99464.66;5091914;28;20036;-46
2022/10/02 06:48:56;;;;;;;6.82;2.80;;;;;;;18.04;67.85;99467.41;5091794;28;20636;-45
2022/10/02 06:51:36;;;;;;;6.70;3.63;;;;;;;17.90;68.90;99468.69;5092147;28;20024;-46
2022/10/02 06:54:19;;;;;;;9.70;3.10;;;;;;;18.12;68.92;99474.25;5091844;28;20072;-46
2022/10/02 06:57:20;;;;;;;8.60;3.05;;;;;;;18.16;68.35;99473.56;5090465;28;20032;-45
2022/10/02 06:59:46;;;;;;;7.35;2.50;;;;;;;18.33;68.84;99478.16;5091681;28;20020;-46
2022/10/02 07:02:12;;;;;;;5.63;2.50;;;;;;;18.74;67.50;99461.25;5091672;28;20535;-46
2022/10/02 07:04:50;;;;;;;6.22;2.83;;;;;;;18.80;66.92;99466.72;5090412;28;20024;-46
2022/10/02 07:07:39;;;;;;;7.50;5.75;;;;;;;18.64;67.46;99454.94;5091663;28;20052;-46
2022/10/02 07:10:21;;;;;;;7.05;4.10;;;;;;;18.58;67.49;99461.19;5091659;28;20030;-46
2022/10/02 07:12:53;;;;;;;8.10;3.40;;;;;;;18.54;67.13;99458.97;5091618;28;20036;-45
2022/10/02 07:15:44;;;;;;;5.63;2.97;;;;;;;18.58;67.17;99458.53;5091391;28;20055;-46
2022/10/02 07:18:33;;;;;;;5.05;3.63;;;;;;;18.59;67.39;99462.78;5073341;28;20024;-46
2022/10/02 07:21:52;;;;;;;5.28;2.63;;;;;;;18.63;67.57;99461.28;5091584;28;20393;-46
2022/10/02 07:24:59;;;;;;;6.50;3.28;;;;;;;18.91;67.65;99465.88;5057582;28;20042;-46
2022/10/02 07:27:37;;;;;;;4.57;3.13;;;;;;;19.29;66.42;99467.94;5029186;28;20528;-46
2022/10/02 07:30:14;;;;;;;5.57;3.10;;;;;;;19.55;65.36;99471.06;5029196;28;20100;-46
2022/10/02 07:33:14;;;;;;;4.72;2.33;;;;;;;19.54;63.96;99462.28;5012695;28;20056;-46
2022/10/02 07:35:55;;;;;;;9.63;4.13;;;;;;;19.40;64.60;99462.78;5020478;28;20038;-44
2022/10/02 07:38:42;;;;;;;8.43;3.25;;;;;;;19.36;64.55;99457.16;5012632;28;20064;-44
2022/10/02 07:41:35;;;;;;;6.53;3.00;;;;;;;19.40;64.89;99468.94;5012589;28;20048;-44
2022/10/02 07:44:53;;;;;;;7.32;3.47;;;;;;;19.60;64.55;99465.84;5029018;28;20038;-44
2022/10/02 07:47:49;;;;;;;6.47;5.43;;;;;;;19.74;64.25;99472.50;5012546;28;20068;-44
2022/10/02 07:50:32;;;;;;;14.95;13.50;;;;;;;19.87;63.41;99466.03;5029056;28;20108;-44
2022/10/02 07:53:18;;;;;;;15.30;10.27;;;;;;;20.05;63.62;99472.19;5029025;28;20415;-44
2022/10/02 07:55:50;;;;;;;9.88;4.63;;;;;;;20.40;63.19;99476.41;5031317;28;20120;-44
2022/10/02 07:58:30;;;;;;;10.45;2.50;;;;;;;20.72;61.91;99472.06;5057446;28;20032;-44
2022/10/02 08:01:02;;;;;;;4.57;2.78;;;;;;;20.87;61.35;99473.34;5093458;28;20032;-44
2022/10/02 08:03:49;;;;;;;7.78;2.78;;;;;;;21.01;61.13;99476.44;5093477;28;20020;-44
2022/10/02 08:06:16;;;;;;;3.25;2.25;;;;;;;21.23;60.85;99482.56;5094740;28;20050;-44
2022/10/02 08:09:08;;;;;;;4.63;2.70;;;;;;;21.28;59.74;99482.59;5094688;28;20073;-44
2022/10/02 08:12:00;;;;;;;12.35;6.28;;;;;;;21.34;59.91;99488.78;5094580;28;20529;-44
2022/10/02 08:14:40;;;;;;;4.32;2.67;;;;;;;21.38;59.97;99497.91;5091281;28;20455;-44
2022/10/02 08:17:19;;;;;;;2.92;2.30;;;;;;;21.35;59.97;99496.56;5093180;28;20040;-44
2022/10/02 08:19:49;;;;;;;6.75;2.65;;;;;;;21.31;59.82;99497.31;5094353;28;20024;-44
2022/10/02 08:22:15;;;;;;;5.10;2.60;;;;;;;21.27;59.91;99498.84;5094411;28;20036;-44
2022/10/02 08:24:57;;;;;;;6.88;2.97;;;;;;;21.19;60.40;99497.47;5094333;28;20375;-44
2022/10/02 08:28:01;;;;;;;6.32;2.78;;;;;;;21.27;60.53;99498.84;5094301;28;20032;-44
2022/10/02 08:30:28;;;;;;;10.43;4.63;;;;;;;21.34;60.28;99496.81;5080304;28;20043;-45
2022/10/02 08:32:53;;;;;;;13.98;8.00;;;;;;;21.38;60.73;99502.47;5092801;28;20030;-44
2022/10/02 08:35:20;;;;;;;3.92;3.25;;;;;;;21.34;60.49;99508.28;5092807;28;20027;-44
2022/10/02 08:38:09;;;;;;;10.77;2.50;;;;;;;21.14;61.03;99508.06;5094284;28;20024;-44
2022/10/02 08:41:03;;;;;;;3.58;2.42;;;;;;;21.25;60.79;99508.97;5093966;28;20114;-44
2022/10/02 08:43:52;;;;;;;5.97;2.35;;;;;;;21.46;60.53;99505.50;5094059;28;20043;-44
2022/10/02 08:46:30;;;;;;;3.00;2.00;;;;;;;22.25;58.69;99497.91;5063475;28;20032;-44
2022/10/02 08:49:18;;;;;;;4.85;2.17;;;;;;;23.86;55.21;99491.81;5093848;28;20054;-44
2022/10/02 08:52:02;;;;;;;6.82;2.70;;;;;;;24.49;53.33;99486.13;5093841;28;20031;-45
2022/10/02 08:54:42;;;;;;;9.90;2.67;;;;;;;24.86;52.27;99481.47;5092471;28;20032;-45
2022/10/02 08:57:35;;;;;;;4.55;2.15;;;;;;;26.40;50.09;99472.31;5093705;28;20028;-45
2022/10/02 09:00:08;;;;;;;3.78;2.22;;;;;;;28.58;44.88;99460.47;5092295;28;20481;-45
2022/10/02 09:02:49;;;;;;;7.32;1.92;;;;;;;30.44;41.05;99455.81;5093874;28;20501;-45
2022/10/02 09:05:48;;;;;;;8.07;2.22;;;;;;;31.78;38.05;99459.97;5093561;28;20030;-45
2022/10/02 09:08:36;;;;;;;6.18;1.85;;;;;;;32.37;36.61;99454.66;5092331;28;20119;-45
2022/10/02 09:11:20;;;;;;;6.55;1.92;;;;;;;33.02;34.56;99449.81;5092269;28;20563;-45
2022/10/02 09:14:16;;;;;;;8.27;2.22;;;;;;;34.02;34.26;99452.56;5093405;28;20039;-45
2022/10/02 09:17:31;;;;;;;1.40;1.27;;;;;;;34.82;32.74;99447.72;5093009;28;20040;-45
2022/10/02 09:20:30;;;;;;;3.80;1.52;;;;;;;35.54;31.33;99439.66;5093268;28;20039;-46
2022/10/02 09:23:28;;;;;;;6.60;1.83;;;;;;;36.29;29.73;99446.25;5092002;28;20518;-45
2022/10/02 09:26:16;;;;;;;7.55;1.70;;;;;;;36.73;28.63;99440.63;5093126;28;20035;-48
2022/10/02 09:28:44;;;;;;;3.53;1.58;;;;;;;36.91;28.44;99438.28;5091365;28;20048;-48
2022/10/02 09:31:38;;;;;;;9.57;2.72;;;;;;;37.11;28.39;99435.53;5092989;28;20035;-47
2022/10/02 09:34:34;;;;;;;5.85;1.70;;;;;;;36.68;28.45;99440.09;5092979;28;20031;-47
2022/10/02 09:37:27;;;;;;;14.35;2.72;;;;;;;35.72;29.82;99448.34;5091622;28;20024;-47
2022/10/02 09:40:17;;;;;;;14.52;2.88;;;;;;;35.31;30.54;99444.06;5069460;28;20060;-48
2022/10/02 09:43:00;;;;;;;6.10;1.85;;;;;;;35.06;30.77;99440.63;5092846;28;20032;-47
2022/10/02 09:45:56;;;;;;;6.07;1.27;;;;;;;34.71;31.10;99436.50;5091482;28;20497;-47
2022/10/02 09:49:18;;;;;;;2.28;1.20;;;;;;;34.75;31.58;99444.78;5093106;28;20378;-47
2022/10/02 09:52:15;;;;;;;2.10;1.08;;;;;;;35.20;30.42;99447.28;5030308;28;20065;-48
2022/10/02 09:54:46;;;;;;;6.28;2.10;;;;;;;35.11;30.89;99446.59;5030353;28;20029;-47
2022/10/02 09:57:53;;;;;;;2.95;1.20;;;;;;;35.72;30.50;99451.06;5013546;28;20503;-47
2022/10/02 10:01:00;;;;;;;6.75;2.00;;;;;;;35.48;31.27;99438.31;5030222;28;20044;-45
2022/10/02 10:04:07;;;;;;;8.52;1.95;;;;;;;36.69;29.91;99431.56;5016578;28;20482;-45
2022/10/02 10:07:00;;;;;;;2.97;1.02;;;;;;;37.75;28.58;99427.78;5029984;28;20033;-47
2022/10/02 10:09:50;;;;;;;4.23;1.13;;;;;;;38.73;26.98;99428.13;5030060;28;20076;-48
2022/10/02 10:12:41;;;;;;;7.95;1.70;;;;;;;38.64;26.34;99427.63;5030053;28;20030;-47
2022/10/02 10:15:28;;;;;;;2.92;1.02;;;;;;;38.06;26.16;99431.47;5029687;28;20054;-47
2022/10/02 10:18:25;;;;;;;5.38;1.42;;;;;;;37.45;28.06;99428.41;5028907;28;20052;-47
2022/10/02 10:20:53;;;;;;;5.25;1.15;;;;;;;37.93;27.04;99431.63;5029844;28;20435;-47
2022/10/02 10:23:58;;;;;;;4.82;1.00;;;;;;;37.75;26.49;99436.81;5089431;28;20553;-47
2022/10/02 10:26:48;;;;;;;8.45;1.73;;;;;;;36.68;28.28;99435.41;5078633;28;20036;-47
2022/10/02 10:29:44;;;;;;;1.67;1.05;;;;;;;35.50;29.77;99444.22;5092111;28;20432;-47
2022/10/02 10:32:40;;;;;;;2.90;1.30;;;;;;;34.54;31.53;99442.16;5090754;28;20020;-45
2022/10/02 10:35:15;;;;;;;2.95;1.00;;;;;;;33.74;32.22;99454.34;5092008;28;20024;-45
2022/10/02 10:41:23;;;;;;;1.27;0.80;;;;;;;31.30;36.09;99444.66;5092241;28;20201;-45
2022/10/02 10:44:17;;;;;;;8.27;2.17;;;;;;;30.47;37.61;99438.16;5091901;28;20051;-45
2022/10/02 10:46:56;;;;;;;3.65;0.90;;;;;;;29.96;38.33;99436.81;5092081;28;20408;-45
2022/10/02 10:50:01;;;;;;;5.50;1.20;;;;;;;29.84;39.98;99440.06;5091912;28;20028;-45
2022/10/02 10:52:29;;;;;;;6.32;0.77;;;;;;;29.99;37.92;99439.69;5091870;28;20554;-45
2022/10/02 10:55:11;;;;;;;2.47;0.75;;;;;;;30.53;37.39;99441.53;5091743;28;20020;-45
2022/10/02 10:58:01;;;;;;;5.40;1.40;;;;;;;30.78;36.28;99440.75;5090419;28;20109;-45
2022/10/02 11:01:05;;;;;;;5.72;1.10;;;;;;;30.58;37.51;99435.94;5091715;28;20032;-45
2022/10/02 11:04:00;;;;;;;1.35;0.60;;;;;;;32.59;34.89;99442.72;5057508;28;20063;-45
2022/10/02 11:06:57;;;;;;;2.78;0.90;;;;;;;34.59;31.51;99439.19;5084517;28;20048;-45
2022/10/02 11:10:09;;;;;;;1.48;0.68;;;;;;;35.80;29.76;99439.19;5091959;28;20050;-46
2022/10/02 11:12:50;;;;;;;2.67;0.55;;;;;;;36.04;27.22;99429.22;5091701;28;20024;-45
2022/10/02 11:15:22;;;;;;;4.13;0.80;;;;;;;35.04;27.92;99432.78;5090095;28;20055;-45
2022/10/02 11:18:11;;;;;;;3.80;0.60;;;;;;;35.22;27.98;99435.25;5090140;28;20049;-45
2022/10/02 11:21:05;;;;;;;7.80;1.40;;;;;;;35.64;27.21;99432.06;5091498;28;20020;-45
2022/10/02 11:23:37;;;;;;;1.50;0.70;;;;;;;35.70;26.22;99430.69;5091632;28;20020;-45
2022/10/02 11:26:09;;;;;;;2.47;0.50;;;;;;;35.52;25.82;99425.53;5090560;28;20414;-45
2022/10/02 11:28:43;;;;;;;0.38;0.30;;;;;;;34.65;26.31;99429.69;5091505;28;20542;-45
2022/10/02 11:31:38;;;;;;;3.90;0.60;;;;;;;34.75;27.06;99426.50;5095296;28;20024;-45
2022/10/02 11:34:56;;;;;;;1.10;0.50;;;;;;;35.82;25.81;99416.97;5095253;28;20035;-45
2022/10/02 11:37:56;;;;;;;2.67;0.30;;;;;;;36.48;25.03;99420.88;5095260;28;20394;-46
2022/10/02 11:40:43;;;;;;;1.13;0.20;;;;;;;36.25;24.48;99420.78;5095281;28;20035;-45
2022/10/02 11:43:35;;;;;;;4.82;0.60;;;;;;;34.98;26.14;99417.78;5095212;28;20378;-46
2022/10/02 11:46:10;;;;;;;2.67;0.40;;;;;;;35.26;26.66;99412.38;5082896;28;20043;-45
2022/10/02 11:48:57;;;;;;;2.95;0.55;;;;;;;35.56;25.99;99412.78;5094982;28;20031;-46
2022/10/02 11:51:52;;;;;;;1.85;0.35;;;;;;;35.82;26.29;99411.53;5095054;28;20028;-45
2022/10/02 11:54:43;;;;;;;1.50;0.60;;;;;;;36.17;25.84;99408.88;5089196;28;20043;-45
2022/10/02 11:57:33;;;;;;;4.95;1.00;;;;;;;36.61;24.94;99401.66;5095152;28;20115;-47
2022/10/02 12:00:14;;;;;;;1.77;0.55;;;;;;;36.81;24.86;99402.50;5094738;28;20028;-48
2022/10/02 12:03:14;;;;;;;1.23;0.30;;;;;;;36.69;24.51;99397.94;5094890;28;20028;-47
2022/10/02 12:06:18;;;;;;;2.08;0.82;;;;;;;37.05;24.37;99388.50;5094819;28;20487;-47
2022/10/02 12:09:06;;;;;;;0.98;0.35;;;;;;;37.57;22.84;99391.84;5052689;28;20040;-47
2022/10/02 12:12:13;;;;;;;6.05;0.55;;;;;;;37.80;22.68;99389.13;5093285;28;20055;-47
2022/10/02 12:14:51;;;;;;;3.53;0.70;;;;;;;37.72;23.29;99384.69;5094527;28;20036;-48
2022/10/02 12:17:23;;;;;;;0.20;0.20;;;;;;;37.08;23.26;99382.31;5094547;28;20016;-48
2022/10/02 12:28:35;;;;;;;0.35;0.15;;;;;;;37.32;23.64;99366.75;5094428;28;20403;-47
2022/10/02 12:31:21;;;;;;;2.03;0.38;;;;;;;37.18;23.67;99367.28;5094405;28;20073;-47
2022/10/02 12:34:00;;;;;;;0.80;0.40;;;;;;;37.07;23.63;99360.78;5094294;28;20397;-48
2022/10/02 12:36:33;;;;;;;0.55;0.40;;;;;;;36.84;23.71;99345.09;5094230;28;20054;-47
2022/10/02 12:39:46;;;;;;;5.57;0.52;;;;;;;36.82;23.46;99346.63;5094099;28;20109;-47
2022/10/02 12:42:33;;;;;;;40.67;3.75;;;;;;;36.44;23.10;99346.19;5087447;28;20043;-47
2022/10/02 12:45:34;;;;;;;9.55;0.93;;;;;;;35.85;24.18;99344.47;5094035;28;20081;-47
2022/10/02 12:48:35;;;;;;;12.65;1.30;;;;;;;35.51;24.99;99338.53;5094015;28;20469;-47
2022/10/02 12:51:19;;;;;;;2.85;0.40;;;;;;;35.20;25.12;99337.34;5031281;28;20033;-47
2022/10/02 12:54:21;;;;;;;3.70;1.08;;;;;;;35.00;25.56;99344.59;5014913;28;20041;-45
2022/10/02 12:57:50;;;;;;;8.25;1.02;;;;;;;34.91;25.89;99335.75;5031359;28;20057;-45
2022/10/02 13:00:18;;;;;;;2.35;0.60;;;;;;;34.99;25.76;99338.34;5030991;28;20045;-45